TimeEDT,TemperatureF,Dew PointF,Humidity,Sea Level PressureIn,VisibilityMPH,Wind Direction,Wind SpeedMPH,Gust SpeedMPH,PrecipitationIn,Events,Conditions,WindDirDegrees,DateUTC
12:12 AM,39.2,35.6,87,29.95,10.0,Calm,Calm,-,N/A,,Overcast,0,2011-10-27 04:12:00
12:54 AM,39.0,36.0,89,29.96,10.0,Calm,Calm,-,0.00,,Overcast,0,2011-10-27 04:54:00
1:54 AM,37.0,35.1,93,29.96,10.0,Calm,Calm,-,N/A,,Clear,0,2011-10-27 05:54:00
2:54 AM,34.0,33.1,96,29.97,10.0,Calm,Calm,-,N/A,,Clear,0,2011-10-27 06:54:00
3:54 AM,32.0,32.0,100,29.96,9.0,Calm,Calm,-,N/A,,Clear,0,2011-10-27 07:54:00
4:54 AM,30.9,30.0,96,29.95,8.0,Calm,Calm,-,N/A,,Clear,0,2011-10-27 08:54:00
5:54 AM,30.9,30.0,96,29.96,9.0,Calm,Calm,-,N/A,,Partly Cloudy,0,2011-10-27 09:54:00
6:54 AM,33.1,32.0,96,29.96,10.0,West,3.5,-,N/A,,Clear,280,2011-10-27 10:54:00
7:54 AM,32.0,32.0,100,29.96,10.0,Calm,Calm,-,N/A,,Scattered Clouds,0,2011-10-27 11:54:00
8:54 AM,34.0,33.1,96,29.98,10.0,Calm,Calm,-,N/A,,Overcast,0,2011-10-27 12:54:00
9:54 AM,37.0,35.1,93,29.98,10.0,Calm,Calm,-,N/A,,Overcast,0,2011-10-27 13:54:00
10:54 AM,39.0,36.0,89,29.98,10.0,Calm,Calm,-,N/A,,Overcast,0,2011-10-27 14:54:00
11:54 AM,42.1,36.0,79,29.98,10.0,Calm,Calm,-,N/A,,Overcast,0,2011-10-27 15:54:00
12:54 PM,43.0,34.0,71,29.98,10.0,Calm,Calm,-,N/A,,Overcast,0,2011-10-27 16:54:00
1:54 PM,43.0,30.9,62,29.97,10.0,WSW,4.6,-,N/A,,Overcast,250,2011-10-27 17:54:00
2:54 PM,42.1,32.0,67,29.98,10.0,WSW,3.5,-,N/A,,Overcast,240,2011-10-27 18:54:00
3:54 PM,43.0,33.1,68,29.99,10.0,NW,3.5,-,N/A,,Overcast,320,2011-10-27 19:54:00
4:12 PM,42.8,33.8,70,29.96,10.0,Calm,Calm,-,0.00,Rain,Light Rain,0,2011-10-27 20:12:00
4:54 PM,37.9,36.0,93,30.01,7.0,NW,6.9,-,0.01,Rain,Rain,320,2011-10-27 20:54:00
5:00 PM,-9999,-9999,N/A,-9999,-9999.0,North,-9999.0,-,N/A,,Unknown,0,2011-10-27 21:00:00
5:39 PM,39.2,37.4,93,29.98,10.0,South,6.9,-,0.04,,Overcast,170,2011-10-27 21:39:00
5:54 PM,39.0,36.0,89,30.01,10.0,SW,4.6,-,0.04,,Overcast,230,2011-10-27 21:54:00
6:54 PM,37.0,36.0,96,30.05,10.0,SW,3.5,-,N/A,,Overcast,230,2011-10-27 22:54:00
7:11 PM,37.4,35.6,93,30.04,9.0,NNW,5.8,-,0.00,Rain,Light Rain,340,2011-10-27 23:11:00
7:22 PM,37.4,35.6,93,30.04,6.0,Calm,Calm,-,0.00,Rain,Rain,0,2011-10-27 23:22:00
7:39 PM,37.4,35.6,93,30.04,10.0,SSW,3.5,-,0.02,Rain,Light Rain,200,2011-10-27 23:39:00
7:54 PM,37.0,35.1,93,30.08,10.0,Calm,Calm,-,0.02,,Mostly Cloudy,0,2011-10-27 23:54:00
8:54 PM,37.0,35.1,93,30.10,10.0,WSW,4.6,-,N/A,,Overcast,240,2011-10-28 00:54:00
9:54 PM,37.0,35.1,93,30.11,10.0,West,3.5,-,N/A,,Overcast,280,2011-10-28 01:54:00
10:54 PM,36.0,35.1,97,30.12,10.0,West,3.5,-,N/A,,Mostly Cloudy,260,2011-10-28 02:54:00
11:54 PM,35.1,34.0,96,30.11,10.0,WNW,3.5,-,N/A,,Clear,290,2011-10-28 03:54:00